createdAt,value
2018-07-10T00:03:24.954Z,15.34
2018-07-10T00:06:16.625Z,15.35
2018-07-10T00:09:32.211Z,15.49
2018-07-10T00:12:01.960Z,15.51
2018-07-10T00:14:31.633Z,15.58
2018-07-10T00:17:01.284Z,15.52
2018-07-10T00:19:31.246Z,15.48
2018-07-10T00:22:01.122Z,15.52
2018-07-10T00:24:31.020Z,15.45
2018-07-10T00:27:01.035Z,15.48
2018-07-10T00:29:30.650Z,15.50
2018-07-10T00:32:00.751Z,15.55
2018-07-10T00:34:30.854Z,15.44
2018-07-10T00:37:00.871Z,15.51
2018-07-10T00:39:30.636Z,15.52
2018-07-10T00:42:00.510Z,15.46
2018-07-10T00:44:30.214Z,15.47
2018-07-10T00:46:59.878Z,15.34
2018-07-10T00:49:29.966Z,15.40
2018-07-10T00:52:00.052Z,15.35
2018-07-10T00:54:30.149Z,15.48
2018-07-10T00:57:00.155Z,15.59
2018-07-10T00:59:30.232Z,15.44
2018-07-10T01:02:00.220Z,15.63
2018-07-10T01:04:29.873Z,15.64
2018-07-10T01:06:59.807Z,15.64
2018-07-10T01:09:29.731Z,15.70
2018-07-10T01:11:59.534Z,15.63
2018-07-10T01:14:29.163Z,15.78
2018-07-10T01:16:58.986Z,15.90
2018-07-10T01:19:28.770Z,15.73
2018-07-10T01:21:58.534Z,15.70
2018-07-10T01:24:28.548Z,15.77
2018-07-10T01:26:58.367Z,15.77
2018-07-10T01:29:33.285Z,15.74
2018-07-10T01:32:03.276Z,15.73
2018-07-10T01:34:33.326Z,15.77
2018-07-10T01:37:03.739Z,15.81
2018-07-10T01:39:33.637Z,15.65
2018-07-10T01:42:03.497Z,16.07
2018-07-10T01:44:33.215Z,16.16
2018-07-10T01:47:03.027Z,16.01
2018-07-10T01:49:32.923Z,15.88
2018-07-10T01:52:02.972Z,14.72
2018-07-10T01:54:32.674Z,15.80
2018-07-10T01:57:02.842Z,15.75
2018-07-10T01:59:32.753Z,15.45
2018-07-10T02:02:02.504Z,15.21
2018-07-10T02:04:32.520Z,15.15
2018-07-10T02:07:02.410Z,15.13
2018-07-10T02:09:32.319Z,15.02
2018-07-10T02:12:02.072Z,15.06
2018-07-10T02:14:31.869Z,15.02
2018-07-10T02:17:01.649Z,15.02
2018-07-10T02:19:31.680Z,14.97
2018-07-10T02:22:01.638Z,14.77
2018-07-10T02:24:31.504Z,14.76
2018-07-10T02:27:01.627Z,14.74
2018-07-10T02:29:31.626Z,14.81
2018-07-10T02:32:01.451Z,14.89
2018-07-10T02:34:31.416Z,14.81
2018-07-10T02:37:03.209Z,14.77
2018-07-10T02:39:33.150Z,14.66
2018-07-10T02:42:03.235Z,14.64
2018-07-10T02:44:32.851Z,14.72
2018-07-10T02:47:03.324Z,14.63
2018-07-10T02:49:32.990Z,14.64
2018-07-10T02:52:05.072Z,14.57
2018-07-10T02:54:36.859Z,14.54
2018-07-10T02:57:08.636Z,14.60
2018-07-10T02:59:42.007Z,14.57
2018-07-10T03:02:20.686Z,14.55
2018-07-10T03:05:00.972Z,14.64
2018-07-10T03:07:32.356Z,14.63
2018-07-10T03:10:02.617Z,14.56
2018-07-10T03:12:35.023Z,14.47
2018-07-10T03:15:08.148Z,14.49
2018-07-10T03:17:38.315Z,14.51
2018-07-10T03:20:09.139Z,14.58
2018-07-10T03:22:39.058Z,14.75
2018-07-10T03:25:09.619Z,14.68
2018-07-10T03:27:39.782Z,14.92
2018-07-10T03:30:09.510Z,15.06
2018-07-10T03:32:39.545Z,15.25
2018-07-10T03:35:09.283Z,15.28
2018-07-10T03:37:39.137Z,15.52
2018-07-10T03:40:08.854Z,15.48
2018-07-10T03:42:38.671Z,15.54
2018-07-10T03:45:08.394Z,15.59
2018-07-10T03:47:38.262Z,15.63
2018-07-10T03:50:08.150Z,15.65
2018-07-10T03:52:38.223Z,15.74
2018-07-10T03:55:11.054Z,15.91
2018-07-10T03:57:41.065Z,15.93
2018-07-10T04:00:13.052Z,15.99
2018-07-10T04:02:44.343Z,16.11
2018-07-10T04:05:14.474Z,16.40
2018-07-10T04:07:45.258Z,16.41
2018-07-10T04:10:18.442Z,16.23
2018-07-10T04:12:50.294Z,16.19
2018-07-10T04:15:20.476Z,16.26
2018-07-10T04:18:04.365Z,16.24
2018-07-10T04:21:46.747Z,16.40
2018-07-10T04:24:19.558Z,16.38
2018-07-10T04:26:58.037Z,16.52
2018-07-10T04:29:48.718Z,16.63
2018-07-10T04:32:18.879Z,16.49
2018-07-10T04:34:49.979Z,16.65
2018-07-10T04:37:19.909Z,16.70
2018-07-10T04:39:49.680Z,16.83
2018-07-10T04:42:23.835Z,16.84
2018-07-10T04:45:08.655Z,16.61
2018-07-10T04:47:44.502Z,16.87
2018-07-10T04:50:22.619Z,17.01
2018-07-10T04:53:01.503Z,17.20
2018-07-10T04:55:32.594Z,17.35
2018-07-10T04:58:05.955Z,17.34
2018-07-10T05:00:39.024Z,17.31
2018-07-10T05:03:08.926Z,17.23
2018-07-10T05:05:38.895Z,16.99
2018-07-10T05:08:08.635Z,17.04
2018-07-10T05:10:38.247Z,17.21
2018-07-10T05:13:08.249Z,17.31
2018-07-10T05:15:40.145Z,16.95
2018-07-10T05:18:11.418Z,16.93
2018-07-10T05:20:45.163Z,17.06
2018-07-10T05:23:16.579Z,17.35
2018-07-10T05:25:55.130Z,17.20
2018-07-10T05:28:27.054Z,17.21
2018-07-10T05:30:59.916Z,17.22
2018-07-10T05:33:30.476Z,17.22
2018-07-10T05:36:01.731Z,17.14
2018-07-10T05:38:40.989Z,17.30
2018-07-10T05:41:13.890Z,17.04
2018-07-10T05:43:49.855Z,15.37
2018-07-10T05:46:22.318Z,17.25
2018-07-10T05:49:07.998Z,17.29
2018-07-10T05:51:49.775Z,17.02
2018-07-10T05:54:19.571Z,17.09
2018-07-10T05:56:50.318Z,17.03
2018-07-10T05:59:20.116Z,17.46
2018-07-10T06:01:49.908Z,17.31
2018-07-10T06:04:19.883Z,17.56
2018-07-10T06:06:49.801Z,17.24
2018-07-10T06:09:19.600Z,17.09
2018-07-10T06:11:49.249Z,17.11
2018-07-10T06:14:19.207Z,16.80
2018-07-10T06:16:51.335Z,16.92
2018-07-10T06:19:21.382Z,17.03
2018-07-10T06:21:51.826Z,17.01
2018-07-10T06:24:26.716Z,17.19
2018-07-10T06:27:07.376Z,17.36
2018-07-10T06:29:50.470Z,17.13
2018-07-10T06:32:22.103Z,17.02
2018-07-10T06:34:57.381Z,17.17
2018-07-10T06:37:34.430Z,17.12
2018-07-10T06:40:06.522Z,17.31
2018-07-10T06:42:51.611Z,17.09
2018-07-10T06:45:21.470Z,17.21
2018-07-10T06:47:51.492Z,17.27
2018-07-10T06:50:22.482Z,17.32
2018-07-10T06:52:53.694Z,17.42
2018-07-10T06:55:23.696Z,17.32
2018-07-10T06:57:55.004Z,17.32
2018-07-10T07:00:25.262Z,17.33
2018-07-10T07:02:55.190Z,17.46
2018-07-10T07:05:25.168Z,17.50
2018-07-10T07:07:54.886Z,17.69
2018-07-10T07:10:25.861Z,17.77
2018-07-10T07:12:55.894Z,17.83
2018-07-10T07:15:25.759Z,18.07
2018-07-10T07:17:55.628Z,18.03
2018-07-10T07:20:25.445Z,18.24
2018-07-10T07:22:55.302Z,18.40
2018-07-10T07:25:25.060Z,18.87
2018-07-10T07:27:54.862Z,18.95
2018-07-10T07:30:24.717Z,18.67
2018-07-10T07:32:54.441Z,18.82
2018-07-10T07:35:24.074Z,19.06
2018-07-10T07:37:53.630Z,19.15
2018-07-10T07:40:23.435Z,18.79
2018-07-10T07:42:53.071Z,18.74
2018-07-10T07:45:22.871Z,19.26
2018-07-10T07:47:53.274Z,19.41
2018-07-10T07:50:23.192Z,19.33
2018-07-10T07:52:53.112Z,19.76
2018-07-10T07:55:23.175Z,19.99
2018-07-10T07:57:52.950Z,19.30
2018-07-10T08:00:22.813Z,19.34
2018-07-10T08:02:53.033Z,19.32
2018-07-10T08:05:22.842Z,19.49
2018-07-10T08:07:52.609Z,19.34
2018-07-10T08:10:22.490Z,19.35
2018-07-10T08:12:52.400Z,19.80
2018-07-10T08:15:22.503Z,19.67
2018-07-10T08:17:52.483Z,19.70
2018-07-10T08:20:22.539Z,19.98
2018-07-10T08:22:52.558Z,19.78
2018-07-10T08:25:24.687Z,19.72
2018-07-10T08:27:55.043Z,19.68
2018-07-10T08:30:25.244Z,19.93
2018-07-10T08:32:55.258Z,20.32
2018-07-10T08:35:25.078Z,20.31
2018-07-10T08:37:54.850Z,20.26
2018-07-10T08:40:24.613Z,20.14
2018-07-10T08:42:54.714Z,20.19
2018-07-10T08:45:24.799Z,20.24
2018-07-10T08:47:54.963Z,20.46
2018-07-10T08:50:25.063Z,20.60
2018-07-10T08:52:55.253Z,20.71
2018-07-10T08:55:25.426Z,20.62
2018-07-10T08:57:55.675Z,20.91
2018-07-10T09:00:25.874Z,21.27
2018-07-10T09:02:55.981Z,20.87
2018-07-10T09:05:25.782Z,20.88
2018-07-10T09:07:55.672Z,20.72
2018-07-10T09:10:25.799Z,20.54
2018-07-10T09:12:55.952Z,20.21
2018-07-10T09:15:29.281Z,20.27
2018-07-10T09:17:59.275Z,20.47
2018-07-10T09:20:33.841Z,20.50
2018-07-10T09:23:04.085Z,20.72
2018-07-10T09:25:34.162Z,20.73
2018-07-10T09:28:04.452Z,20.76
2018-07-10T09:30:34.587Z,21.05
2018-07-10T09:33:04.816Z,21.17
2018-07-10T09:35:34.576Z,21.03
2018-07-10T09:38:04.474Z,21.22
2018-07-10T09:40:34.943Z,20.95
2018-07-10T09:43:05.422Z,20.99
2018-07-10T09:45:37.002Z,21.06
2018-07-10T09:48:08.232Z,21.11
2018-07-10T09:50:38.910Z,20.96
2018-07-10T09:53:09.108Z,21.15
2018-07-10T09:55:39.176Z,21.21
2018-07-10T09:58:09.551Z,21.42
2018-07-10T10:00:44.628Z,21.77
2018-07-10T10:03:14.495Z,21.88
2018-07-10T10:05:45.318Z,22.16
2018-07-10T10:08:15.117Z,22.24
2018-07-10T10:10:45.151Z,22.19
2018-07-10T10:13:15.286Z,21.93
2018-07-10T10:15:45.394Z,21.90
2018-07-10T10:18:15.507Z,21.62
2018-07-10T10:20:46.597Z,21.47
2018-07-10T10:23:16.578Z,21.30
2018-07-10T10:25:50.458Z,21.29
2018-07-10T10:28:23.260Z,21.55
2018-07-10T10:30:53.396Z,22.10
2018-07-10T10:33:23.213Z,21.87
2018-07-10T10:35:53.076Z,21.78
2018-07-10T10:38:24.125Z,22.08
2018-07-10T10:40:54.353Z,21.42
2018-07-10T10:43:24.568Z,21.60
2018-07-10T10:45:54.604Z,21.43
2018-07-10T10:48:24.864Z,21.45
2018-07-10T10:50:54.990Z,21.21
2018-07-10T10:53:25.117Z,21.14
2018-07-10T10:55:55.231Z,21.20
2018-07-10T10:58:25.429Z,21.31
2018-07-10T11:00:55.606Z,21.38
2018-07-10T11:03:25.526Z,21.42
2018-07-10T11:05:55.390Z,21.71
2018-07-10T11:08:25.526Z,22.16
2018-07-10T11:10:55.673Z,22.45
2018-07-10T11:13:25.786Z,22.55
2018-07-10T11:15:56.057Z,22.85
2018-07-10T11:18:37.437Z,23.42
2018-07-10T11:22:12.902Z,23.10
2018-07-10T11:24:58.097Z,23.25
2018-07-10T11:28:31.540Z,22.81
2018-07-10T11:31:01.532Z,23.02
2018-07-10T11:33:31.363Z,23.19
2018-07-10T11:36:01.184Z,22.65
2018-07-10T11:38:31.325Z,22.75
2018-07-10T11:41:01.525Z,22.56
2018-07-10T11:43:31.795Z,22.05
2018-07-10T11:46:01.691Z,21.86
2018-07-10T11:48:31.570Z,21.93
2018-07-10T11:51:01.445Z,21.76
2018-07-10T11:53:31.351Z,21.74
2018-07-10T11:56:01.196Z,21.82
2018-07-10T11:58:30.996Z,21.82
2018-07-10T12:01:00.691Z,22.36
2018-07-10T12:03:37.297Z,22.72
2018-07-10T12:06:07.863Z,22.53
2018-07-10T12:08:37.894Z,22.36
2018-07-10T12:11:16.512Z,22.22
2018-07-10T12:13:46.193Z,22.54
2018-07-10T12:16:15.909Z,22.24
2018-07-10T12:18:45.947Z,22.33
2018-07-10T12:21:17.005Z,22.40
2018-07-10T12:23:47.196Z,22.65
2018-07-10T12:26:17.307Z,23.21
2018-07-10T12:28:47.443Z,23.45
2018-07-10T12:31:17.421Z,23.44
2018-07-10T12:33:47.212Z,23.02
2018-07-10T12:36:16.787Z,22.58
2018-07-10T12:38:46.480Z,22.11
2018-07-10T12:41:16.371Z,22.11
2018-07-10T12:43:46.198Z,22.14
2018-07-10T12:46:16.144Z,22.36
2018-07-10T12:48:46.310Z,22.33
2018-07-10T12:51:16.302Z,22.23
2018-07-10T12:53:46.198Z,22.61
2018-07-10T12:56:15.964Z,22.60
2018-07-10T12:58:45.570Z,23.14
2018-07-10T13:01:15.595Z,22.81
2018-07-10T13:03:45.282Z,23.04
2018-07-10T13:06:15.464Z,23.55
2018-07-10T13:08:45.123Z,23.89
2018-07-10T13:11:14.825Z,23.98
2018-07-10T13:13:44.759Z,24.31
2018-07-10T13:16:14.746Z,24.47
2018-07-10T13:18:44.408Z,25.08
2018-07-10T13:21:14.551Z,25.31
2018-07-10T13:23:44.663Z,25.51
2018-07-10T13:26:14.712Z,25.33
2018-07-10T13:28:44.550Z,24.95
2018-07-10T13:31:14.229Z,24.90
2018-07-10T13:33:43.994Z,25.09
2018-07-10T13:36:14.135Z,25.37
2018-07-10T13:38:43.988Z,25.35
2018-07-10T13:41:13.737Z,25.15
2018-07-10T13:43:43.750Z,25.09
2018-07-10T13:46:13.736Z,24.62
2018-07-10T13:48:43.713Z,24.32
2018-07-10T13:51:13.567Z,23.96
2018-07-10T13:53:43.279Z,24.11
2018-07-10T13:56:13.387Z,24.61
2018-07-10T13:58:43.214Z,24.67
2018-07-10T14:01:13.186Z,24.99
2018-07-10T14:03:42.940Z,25.01
2018-07-10T14:06:12.998Z,25.57
2018-07-10T14:08:42.944Z,25.47
2018-07-10T14:11:12.634Z,24.52
2018-07-10T14:13:42.725Z,23.97
2018-07-10T14:16:12.795Z,23.55
2018-07-10T14:18:42.695Z,23.66
2018-07-10T14:21:12.881Z,23.77
2018-07-10T14:23:42.673Z,23.87
2018-07-10T14:26:12.495Z,23.57
2018-07-10T14:28:42.162Z,23.78
2018-07-10T14:31:11.834Z,24.10
2018-07-10T14:33:41.623Z,24.34
2018-07-10T14:36:11.807Z,24.20
2018-07-10T14:38:42.895Z,23.80
2018-07-10T14:41:14.228Z,23.85
2018-07-10T14:43:46.175Z,24.23
2018-07-10T14:46:17.791Z,23.95
2018-07-10T14:48:53.030Z,23.64
2018-07-10T14:51:26.052Z,24.01
2018-07-10T14:53:56.108Z,23.68
2018-07-10T14:56:26.135Z,23.36
2018-07-10T14:58:57.275Z,23.14
2018-07-10T15:01:27.094Z,23.57
2018-07-10T15:03:57.589Z,23.81
2018-07-10T15:06:27.871Z,23.78
2018-07-10T15:08:57.808Z,23.67
2018-07-10T15:11:27.991Z,23.89
2018-07-10T15:14:03.354Z,23.51
2018-07-10T15:16:38.312Z,24.10
2018-07-10T15:19:08.340Z,24.48
2018-07-10T15:21:38.571Z,24.82
2018-07-10T15:24:09.526Z,24.92
2018-07-10T15:26:39.383Z,25.08
2018-07-10T15:29:09.131Z,24.78
2018-07-10T15:31:39.050Z,24.24
2018-07-10T15:34:08.954Z,24.14
2018-07-10T15:36:39.023Z,23.51
2018-07-10T15:39:08.779Z,23.87
2018-07-10T15:41:38.812Z,23.76
2018-07-10T15:44:08.442Z,23.00
2018-07-10T15:46:38.048Z,23.32
2018-07-10T15:49:07.727Z,22.92
2018-07-10T15:51:37.334Z,22.82
2018-07-10T15:54:07.357Z,22.99
2018-07-10T15:56:37.056Z,22.94
2018-07-10T15:59:06.809Z,22.62
2018-07-10T16:01:37.015Z,22.92
2018-07-10T16:04:06.994Z,22.42
2018-07-10T16:06:37.623Z,22.57
2018-07-10T16:09:14.187Z,22.64
2018-07-10T16:11:44.174Z,22.30
2018-07-10T16:14:13.818Z,22.04
2018-07-10T16:16:43.794Z,22.16
2018-07-10T16:19:17.262Z,22.03
2018-07-10T16:21:56.585Z,21.90
2018-07-10T16:24:26.216Z,21.82
2018-07-10T16:26:56.079Z,21.75
2018-07-10T16:29:26.243Z,21.73
2018-07-10T16:32:00.031Z,21.75
2018-07-10T16:34:29.975Z,21.38
2018-07-10T16:37:00.065Z,21.61
2018-07-10T16:39:29.950Z,21.57
2018-07-10T16:42:04.841Z,21.33
2018-07-10T16:44:36.003Z,21.35
2018-07-10T16:47:10.811Z,21.38
2018-07-10T16:49:47.389Z,21.34
2018-07-10T16:53:22.977Z,21.36
2018-07-10T16:55:52.693Z,21.08
2018-07-10T16:58:22.607Z,21.27
2018-07-10T17:00:52.731Z,21.61
2018-07-10T17:03:22.503Z,21.46
2018-07-10T17:05:52.492Z,21.58
2018-07-10T17:08:22.458Z,21.36
2018-07-10T17:10:52.679Z,21.45
2018-07-10T17:13:22.863Z,21.22
2018-07-10T17:15:52.842Z,21.51
2018-07-10T17:18:22.919Z,21.46
2018-07-10T17:20:52.785Z,21.38
2018-07-10T17:23:22.518Z,21.29
2018-07-10T17:25:52.355Z,21.40
2018-07-10T17:28:22.178Z,21.19
2018-07-10T17:30:52.122Z,20.92
2018-07-10T17:33:22.486Z,21.10
2018-07-10T17:35:52.380Z,21.05
2018-07-10T17:38:22.263Z,20.91
2018-07-10T17:40:52.457Z,21.01
2018-07-10T17:43:23.083Z,20.92
2018-07-10T17:45:53.463Z,21.13
2018-07-10T17:48:23.981Z,20.97
2018-07-10T17:50:53.838Z,20.92
2018-07-10T17:53:23.924Z,20.76
2018-07-10T17:55:53.655Z,20.74
2018-07-10T17:58:23.754Z,20.91
2018-07-10T18:00:53.728Z,21.05
2018-07-10T18:03:23.395Z,20.85
2018-07-10T18:05:53.321Z,20.68
2018-07-10T18:08:23.412Z,20.46
2018-07-10T18:10:53.478Z,20.37
2018-07-10T18:13:23.351Z,20.14
2018-07-10T18:15:53.231Z,19.91
2018-07-10T18:18:23.270Z,20.01
2018-07-10T18:20:53.243Z,19.81
2018-07-10T18:23:23.125Z,19.62
2018-07-10T18:25:52.824Z,19.64
2018-07-10T18:28:22.377Z,19.65
2018-07-10T18:30:52.216Z,19.42
2018-07-10T18:33:22.178Z,19.35
2018-07-10T18:35:52.246Z,19.28
2018-07-10T18:38:22.011Z,19.20
2018-07-10T18:40:52.026Z,19.12
2018-07-10T18:43:21.794Z,19.22
2018-07-10T18:45:51.865Z,19.14
2018-07-10T18:48:25.641Z,18.99
2018-07-10T18:50:56.647Z,19.00
2018-07-10T18:53:27.399Z,19.07
2018-07-10T18:55:57.131Z,19.04
2018-07-10T18:58:30.327Z,19.02
2018-07-10T19:01:52.732Z,19.08
2018-07-10T19:04:28.830Z,18.83
2018-07-10T19:06:58.783Z,18.77
2018-07-10T19:09:33.864Z,18.97
2018-07-10T19:12:05.647Z,18.85
2018-07-10T19:14:35.647Z,18.64
2018-07-10T19:17:09.666Z,18.62
2018-07-10T19:19:39.403Z,18.66
2018-07-10T19:22:11.942Z,18.64
2018-07-10T19:24:42.922Z,18.55
2018-07-10T19:27:24.496Z,18.57
2018-07-10T19:29:57.366Z,18.51
2018-07-10T19:32:27.461Z,18.55
2018-07-10T19:35:00.797Z,18.53
2018-07-10T19:37:32.548Z,18.41
2018-07-10T19:40:02.700Z,18.37
2018-07-10T19:42:33.946Z,18.31
2018-07-10T19:45:05.179Z,18.38
2018-07-10T19:47:35.357Z,18.36
2018-07-10T19:50:13.591Z,18.30
2018-07-10T19:52:45.967Z,18.22
2018-07-10T19:55:15.851Z,18.34
2018-07-10T19:58:07.276Z,18.25
2018-07-10T20:00:43.652Z,18.26
2018-07-10T20:03:23.618Z,18.24
2018-07-10T20:05:53.438Z,18.21
2018-07-10T20:08:23.282Z,18.18
2018-07-10T20:10:58.349Z,18.24
2018-07-10T20:13:58.534Z,18.13
2018-07-10T20:16:51.706Z,18.24
2018-07-10T20:19:34.076Z,18.07
2018-07-10T20:22:10.517Z,18.13
2018-07-10T20:24:44.435Z,18.02
2018-07-10T20:27:27.058Z,17.92
2018-07-10T20:30:09.023Z,17.96
2018-07-10T20:32:46.480Z,17.93
2018-07-10T20:35:22.085Z,17.94
2018-07-10T20:37:51.746Z,17.92
2018-07-10T20:40:31.463Z,17.91
2018-07-10T20:43:07.435Z,17.88
2018-07-10T20:45:46.540Z,17.81
2018-07-10T20:48:37.177Z,17.74
2018-07-10T20:51:08.531Z,17.72
2018-07-10T20:53:45.435Z,17.75
2018-07-10T20:56:20.767Z,17.76
2018-07-10T20:59:11.870Z,17.66
2018-07-10T21:01:42.214Z,17.72
2018-07-10T21:04:35.674Z,17.70
2018-07-10T21:07:12.132Z,17.77
2018-07-10T21:09:58.842Z,17.60
2018-07-10T21:12:34.699Z,17.54
2018-07-10T21:15:07.696Z,17.50
2018-07-10T21:17:45.669Z,17.58
2018-07-10T21:20:29.235Z,17.58
2018-07-10T21:23:21.411Z,17.50
2018-07-10T21:25:56.981Z,17.57
2018-07-10T21:29:07.147Z,17.39
2018-07-10T21:31:44.778Z,17.27
2018-07-10T21:34:19.439Z,17.28
2018-07-10T21:39:05.706Z,17.47
2018-07-10T21:41:46.571Z,17.09
2018-07-10T21:46:32.082Z,17.03
2018-07-10T21:49:12.721Z,16.75
2018-07-10T21:51:48.302Z,16.80
2018-07-10T21:54:18.167Z,16.84
2018-07-10T21:56:47.983Z,16.91
2018-07-10T21:59:19.256Z,16.88
2018-07-10T22:01:55.615Z,16.86
2018-07-10T22:04:28.903Z,16.85
2018-07-10T22:06:59.939Z,16.86
2018-07-10T22:09:30.980Z,16.77
2018-07-10T22:12:01.815Z,16.64
2018-07-10T22:14:31.867Z,16.74
2018-07-10T22:17:02.884Z,16.66
2018-07-10T22:19:35.917Z,16.68
2018-07-10T22:22:05.741Z,16.59
2018-07-10T22:24:35.804Z,16.55
2018-07-10T22:27:05.824Z,16.57
2018-07-10T22:29:40.996Z,16.61
2018-07-10T22:32:15.845Z,16.59
2018-07-10T22:34:45.905Z,16.64
2018-07-10T22:37:15.903Z,16.63
2018-07-10T22:39:45.790Z,16.65
2018-07-10T22:42:15.534Z,16.62
2018-07-10T22:44:50.206Z,16.62
2018-07-10T22:47:24.011Z,16.45
2018-07-10T22:49:55.319Z,16.46
2018-07-10T22:52:25.461Z,16.37
2018-07-10T22:54:55.151Z,16.43
2018-07-10T22:57:25.221Z,16.23
2018-07-10T22:59:54.996Z,16.11
2018-07-10T23:02:25.096Z,16.13
2018-07-10T23:04:54.733Z,16.26
2018-07-10T23:07:24.235Z,16.27
2018-07-10T23:09:53.776Z,16.31
2018-07-10T23:12:23.595Z,16.31
2018-07-10T23:14:53.383Z,16.24
2018-07-10T23:17:22.743Z,16.21
2018-07-10T23:19:52.236Z,16.39
2018-07-10T23:22:26.070Z,16.59
2018-07-10T23:24:55.792Z,16.81
2018-07-10T23:27:25.429Z,16.82
2018-07-10T23:29:55.174Z,16.80
2018-07-10T23:32:24.749Z,16.78
2018-07-10T23:34:54.408Z,16.75
2018-07-10T23:37:24.166Z,16.73
2018-07-10T23:39:57.845Z,16.59
2018-07-10T23:42:31.706Z,16.73
2018-07-10T23:45:35.360Z,16.74
2018-07-10T23:48:06.654Z,16.57
2018-07-10T23:50:37.290Z,16.63
2018-07-10T23:53:17.951Z,16.66
2018-07-10T23:55:47.806Z,16.59
2018-07-10T23:58:17.644Z,16.61
